Aviation Digital Data Service (ADDS)

Output produced by METARs form (2329 UTC 01 September 2014)
found at http://aviationweather.gov/adds/metars/
 
KGNV 012220Z 0122/0218 12008KT P6SM VCTS SCT040CB BKN250 
     TEMPO 0122/0124 VRB10G20KT 4SM TSRA BR OVC035CB 
     FM020000 15005KT P6SM FEW040 BKN250 
     FM020300 VRB03KT P6SM SCT250 
     FM021300 23003KT P6SM SCT030